Rhapsody Of The Seas — C6UA2 — position and weather

sailwx.info

Track history (hours):
 
Tides and Currents Weather Stations Pressure Air Temp Water Temp Dewpoint Dewpoint Depression Visibility Wind Speed Wind Dir Waves Ship Positions

Rhapsody Of The Seas

Last reported at 2020-Mar-31 21:49 UTC. Time now 2020-Apr-05 21:37 UTC.
Position N 27°41' W 082°35'.

Type: Passenger vessel. MMSI: 311805000.

Date/timePositionNaut miles runAvg speedWind from/ knotsBaromVisibWave heightAir tempDewpointWater temp
2020-Mar-31 21:49N 27°41' W 082°35'1112.9
2020-Mar-31 21:00N 27°49' W 082°27'611.5
2020-Mar-31 20:30N 27°55' W 082°27'2 0.7
2020-Mar-31 17:58N 27°57' W 082°27'0 0.0
2020-Mar-31 16:28N 27°57' W 082°27'0 0.0
2020-Mar-31 15:55N 27°57' W 082°27'0 0.0
2020-Mar-31 11:25N 27°57' W 082°27'0 0.0
2020-Mar-31 10:58N 27°57' W 082°27'0 0.0
2020-Mar-31 09:58N 27°57' W 082°27'0 0.0
2020-Mar-31 09:28N 27°57' W 082°27'0 0.0
2020-Mar-31 08:28N 27°57' W 082°27'0 0.0
2020-Mar-31 07:25N 27°57' W 082°27'0 0.0
2020-Mar-31 06:28N 27°57' W 082°27'0 0.0
2020-Mar-31 04:58N 27°57' W 082°27'0 0.0
2020-Mar-31 04:28N 27°57' W 082°27'0 0.0
2020-Mar-31 03:28N 27°57' W 082°27'0 0.0
2020-Mar-31 00:58N 27°57' W 082°27'0 0.0
2020-Mar-30 23:28N 27°57' W 082°27'0 0.0
2020-Mar-30 21:28N 27°57' W 082°27'0 0.0
2020-Mar-30 20:58N 27°57' W 082°27'0 0.0
2020-Mar-30 17:28N 27°57' W 082°27'0 0.0
2020-Mar-30 16:28N 27°57' W 082°27'0 0.0
2020-Mar-30 14:28N 27°57' W 082°27'0 0.0
2020-Mar-30 13:58N 27°57' W 082°27'0 0.0
2020-Mar-30 11:55N 27°57' W 082°27'0 0.0
2020-Mar-30 10:28N 27°57' W 082°27'0 0.0
2020-Mar-30 08:28N 27°57' W 082°27'0 0.0
2020-Mar-30 07:58N 27°57' W 082°27'0 0.0
2020-Mar-30 05:58N 27°57' W 082°27'0 0.0
2020-Mar-30 05:25N 27°57' W 082°27'0 0.0
2020-Mar-30 04:28N 27°57' W 082°27'0 0.0
2020-Mar-30 01:58N 27°57' W 082°27'0 0.0
2020-Mar-30 01:25N 27°57' W 082°27'0 0.0
2020-Mar-29 22:28N 27°57' W 082°27'0 0.0
2020-Mar-29 21:28N 27°57' W 082°27'0 0.0
2020-Mar-29 20:28N 27°57' W 082°27'0 0.0
2020-Mar-29 19:28N 27°57' W 082°27'0 0.0
2020-Mar-29 18:55N 27°57' W 082°27'0 0.0
2020-Mar-29 17:58N 27°57' W 082°27'0 0.0
2020-Mar-29 17:28N 27°57' W 082°27'0 0.0
2020-Mar-29 16:28N 27°57' W 082°27'0 0.0
2020-Mar-29 14:28N 27°57' W 082°27'0 0.0
2020-Mar-29 13:28N 27°57' W 082°27'0 0.0
2020-Mar-29 12:58N 27°57' W 082°27'0 0.0
2020-Mar-29 12:28N 27°57' W 082°27'0 0.0
2020-Mar-29 11:25N 27°57' W 082°27'0 0.0
2020-Mar-29 08:58N 27°57' W 082°27'0 0.0
2020-Mar-29 03:28N 27°57' W 082°27'0 0.0
2020-Mar-29 02:28N 27°57' W 082°27'0 0.0
2020-Mar-28 23:58N 27°57' W 082°27'0 0.0
2020-Mar-28 23:28N 27°57' W 082°27'0 0.0
2020-Mar-28 20:58N 27°57' W 082°27'0 0.0
2020-Mar-28 19:28N 27°57' W 082°27'0 0.0
2020-Mar-28 15:28N 27°57' W 082°27'0 0.0
2020-Mar-28 12:28N 27°57' W 082°27'0 0.0
2020-Mar-28 11:58N 27°57' W 082°27'0 0.0
2020-Mar-28 11:28N 27°57' W 082°27'14 4.6
2020-Mar-28 08:30N 27°44' W 082°32'38 6.9
2020-Mar-28 03:00N 27°38' W 083°14'5 2.7
2020-Mar-28 00:57N 27°40' W 083°09'  
Track history (hours):
 
Tides and Currents Weather Stations Pressure Air Temp Water Temp Dewpoint Dewpoint Depression Visibility Wind Speed Wind Dir Waves Ship Positions

Rhapsody Of The Seas

Last reported at 2020-Mar-31 21:49 UTC. Time now 2020-Apr-05 21:37 UTC.
Position N 27°41' W 082°35'.

Type: Passenger vessel. MMSI: 311805000.

Date/timePositionNaut miles runAvg speedWind from/ knotsBaromVisibWave heightAir tempDewpointWater temp
2020-Mar-31 21:49N 27°41' W 082°35'1112.9
2020-Mar-31 21:00N 27°49' W 082°27'611.5
2020-Mar-31 20:30N 27°55' W 082°27'2 0.7
2020-Mar-31 17:58N 27°57' W 082°27'0 0.0
2020-Mar-31 16:28N 27°57' W 082°27'0 0.0
2020-Mar-31 15:55N 27°57' W 082°27'0 0.0
2020-Mar-31 11:25N 27°57' W 082°27'0 0.0
2020-Mar-31 10:58N 27°57' W 082°27'0 0.0
2020-Mar-31 09:58N 27°57' W 082°27'0 0.0
2020-Mar-31 09:28N 27°57' W 082°27'0 0.0
2020-Mar-31 08:28N 27°57' W 082°27'0 0.0
2020-Mar-31 07:25N 27°57' W 082°27'0 0.0
2020-Mar-31 06:28N 27°57' W 082°27'0 0.0
2020-Mar-31 04:58N 27°57' W 082°27'0 0.0
2020-Mar-31 04:28N 27°57' W 082°27'0 0.0
2020-Mar-31 03:28N 27°57' W 082°27'0 0.0
2020-Mar-31 00:58N 27°57' W 082°27'0 0.0
2020-Mar-30 23:28N 27°57' W 082°27'0 0.0
2020-Mar-30 21:28N 27°57' W 082°27'0 0.0
2020-Mar-30 20:58N 27°57' W 082°27'0 0.0
2020-Mar-30 17:28N 27°57' W 082°27'0 0.0
2020-Mar-30 16:28N 27°57' W 082°27'0 0.0
2020-Mar-30 14:28N 27°57' W 082°27'0 0.0
2020-Mar-30 13:58N 27°57' W 082°27'0 0.0
2020-Mar-30 11:55N 27°57' W 082°27'0 0.0
2020-Mar-30 10:28N 27°57' W 082°27'0 0.0
2020-Mar-30 08:28N 27°57' W 082°27'0 0.0
2020-Mar-30 07:58N 27°57' W 082°27'0 0.0
2020-Mar-30 05:58N 27°57' W 082°27'0 0.0
2020-Mar-30 05:25N 27°57' W 082°27'0 0.0
2020-Mar-30 04:28N 27°57' W 082°27'0 0.0
2020-Mar-30 01:58N 27°57' W 082°27'0 0.0
2020-Mar-30 01:25N 27°57' W 082°27'0 0.0
2020-Mar-29 22:28N 27°57' W 082°27'0 0.0
2020-Mar-29 21:28N 27°57' W 082°27'0 0.0
2020-Mar-29 20:28N 27°57' W 082°27'0 0.0
2020-Mar-29 19:28N 27°57' W 082°27'0 0.0
2020-Mar-29 18:55N 27°57' W 082°27'0 0.0
2020-Mar-29 17:58N 27°57' W 082°27'0 0.0
2020-Mar-29 17:28N 27°57' W 082°27'0 0.0
2020-Mar-29 16:28N 27°57' W 082°27'0 0.0
2020-Mar-29 14:28N 27°57' W 082°27'0 0.0
2020-Mar-29 13:28N 27°57' W 082°27'0 0.0
2020-Mar-29 12:58N 27°57' W 082°27'0 0.0
2020-Mar-29 12:28N 27°57' W 082°27'0 0.0
2020-Mar-29 11:25N 27°57' W 082°27'0 0.0
2020-Mar-29 08:58N 27°57' W 082°27'0 0.0
2020-Mar-29 03:28N 27°57' W 082°27'0 0.0
2020-Mar-29 02:28N 27°57' W 082°27'0 0.0
2020-Mar-28 23:58N 27°57' W 082°27'0 0.0
2020-Mar-28 23:28N 27°57' W 082°27'0 0.0
2020-Mar-28 20:58N 27°57' W 082°27'0 0.0
2020-Mar-28 19:28N 27°57' W 082°27'0 0.0
2020-Mar-28 15:28N 27°57' W 082°27'0 0.0
2020-Mar-28 12:28N 27°57' W 082°27'0 0.0
2020-Mar-28 11:58N 27°57' W 082°27'0 0.0
2020-Mar-28 11:28N 27°57' W 082°27'14 4.6
2020-Mar-28 08:30N 27°44' W 082°32'38 6.9
2020-Mar-28 03:00N 27°38' W 083°14'5 2.7
2020-Mar-28 00:57N 27°40' W 083°09'  

Dump ship's entire track history